This is the latest recevied weather packets stored in our database for station/object KF0TNT. If no packets are shown the sender has not sent any weather packets the latest 10 day(s).
| Time | Temp. | Humidity | Pressure | Rain* | Wind** | Luminosity | Snow |
|---|---|---|---|---|---|---|---|
| 1777807625 | 5.56° C | 43% | 1020.7 hPa | 0 mm | - | 0 W/m² | - |
| 1777807322 | 5° C | 46% | 1020.6 hPa | 0 mm | - | 0 W/m² | - |
| 1777807018 | 5° C | 47% | 1020.9 hPa | 0 mm | - | 0 W/m² | - |
| 1777806715 | 5° C | 47% | 1020.6 hPa | 0 mm | - | 0 W/m² | - |
| 1777806410 | 5.56° C | 45% | 1020.6 hPa | 0 mm | - | 0 W/m² | - |
| 1777806108 | 5.56° C | 45% | 1020.5 hPa | 0 mm | - | 0 W/m² | - |
| 1777805804 | 5.56° C | 43% | 1020.9 hPa | 0 mm | - | 0 W/m² | - |
| 1777805501 | 5.56° C | 44% | 1020.7 hPa | 0 mm | - | 0 W/m² | - |
| 1777805199 | 5.56° C | 44% | 1020.7 hPa | 0 mm | - | 0 W/m² | - |
| 1777804897 | 6.11° C | 42% | 1021 hPa | 0 mm | - | 0 W/m² | - |
| 1777804594 | 6.67° C | 40% | 1020.9 hPa | 0 mm | - | 0 W/m² | - |
| 1777804292 | 6.67° C | 40% | 1020.7 hPa | 0 mm | - | 0 W/m² | - |
| 1777803989 | 6.67° C | 39% | 1020.9 hPa | 0 mm | - | 0 W/m² | - |
| 1777803685 | 6.67° C | 39% | 1020.9 hPa | 0 mm | - | 0 W/m² | - |
| 1777803381 | 7.22° C | 38% | 1020.9 hPa | 0 mm | - | 0 W/m² | - |
| 1777803079 | 7.22° C | 37% | 1020.9 hPa | 0 mm | - | 0 W/m² | - |
| 1777802776 | 6.67° C | 37% | 1021.2 hPa | 0 mm | - | 0 W/m² | - |
| 1777802474 | 6.67° C | 37% | 1020.9 hPa | 0 mm | - | 0 W/m² | - |
| 1777802172 | 6.67° C | 37% | 1020.9 hPa | 0 mm | - | 0 W/m² | - |
| 1777801870 | 6.67° C | 37% | 1021 hPa | 0 mm | - | 0 W/m² | - |
| 1777801566 | 6.11° C | 38% | 1021.1 hPa | 0 mm | - | 0 W/m² | - |
| 1777801263 | 5.56° C | 40% | 1021 hPa | 0 mm | - | 0 W/m² | - |
| 1777800959 | 5.56° C | 41% | 1021.1 hPa | 0 mm | - | 0 W/m² | - |
| 1777800657 | 5.56° C | 43% | 1020.9 hPa | 0 mm | - | 0 W/m² | - |
| 1777800352 | 5.56° C | 41% | 1021.1 hPa | 0 mm | - | 0 W/m² | - |
* Rain latest hour (hover to see other rain measurements)
** Current wind speed in m/s (hover to see current wind gust speed)